Time;durP1;ratioP1;P1;durP2;ratioP2;P2;SDS_P1;SDS_P2;PMS_P1;PMS_P2;Temp;Humidity;BMP_temperature;BMP_pressure;BME280_temperature;BME280_humidity;BME280_pressure;Samples;Min_cycle;Max_cycle;Signal;HPM_P1;HPM_P2
2023/01/15 00:03:45;;;;;;;4.03;1.15;;;;;;;5.20;96.62;98625.72;10420830;28;20041;-80
2023/01/15 00:08:48;;;;;;;3.72;0.80;;;;;;;5.24;96.46;98635.13;10412922;28;20036;-79
2023/01/15 00:13:52;;;;;;;3.50;0.90;;;;;;;5.65;94.05;98627.13;10414087;28;20042;-79
2023/01/15 00:18:57;;;;;;;4.65;1.05;;;;;;;5.46;94.31;98652.75;10415207;28;20073;-80
2023/01/15 00:29:23;;;;;;;2.38;0.50;;;;;;;3.48;95.43;98671.81;10407195;28;20088;-80
2023/01/15 00:34:26;;;;;;;1.20;0.30;;;;;;;3.86;95.57;98670.53;10394862;28;20045;-80
2023/01/15 00:39:29;;;;;;;2.72;0.68;;;;;;;3.75;94.89;98690.97;10393605;28;20060;-79
2023/01/15 00:44:33;;;;;;;2.10;0.55;;;;;;;3.88;95.26;98704.97;10409735;28;20034;-78
2023/01/15 00:49:36;;;;;;;3.03;0.43;;;;;;;3.20;95.89;98704.94;10401261;28;20060;-79
2023/01/15 00:54:39;;;;;;;1.75;0.68;;;;;;;3.53;95.73;98715.72;10393096;28;20041;-80
2023/01/15 00:59:43;;;;;;;1.40;0.38;;;;;;;3.30;96.16;98734.28;10404271;28;20034;-80
2023/01/15 01:04:46;;;;;;;0.40;0.25;;;;;;;3.08;95.93;98737.75;10394262;28;20510;-79
2023/01/15 01:09:50;;;;;;;2.35;0.40;;;;;;;3.32;94.94;98737.69;10372065;28;20095;-79
2023/01/15 01:14:55;;;;;;;2.55;0.30;;;;;;;2.96;95.21;98763.41;10397726;28;20141;-79
2023/01/15 01:19:59;;;;;;;0.10;0.10;;;;;;;2.87;93.23;98752.63;10395899;28;20057;-79
2023/01/15 01:25:03;;;;;;;1.70;0.40;;;;;;;2.86;94.64;98750.94;10396475;28;20049;-79
2023/01/15 01:30:09;;;;;;;0.35;0.20;;;;;;;2.92;93.10;98748.66;10400094;28;20109;-80
2023/01/15 01:35:12;;;;;;;0.52;0.20;;;;;;;3.10;92.68;98746.44;10385959;28;20051;-82
2023/01/15 01:40:15;;;;;;;0.63;0.13;;;;;;;2.93;92.53;98721.16;10384406;28;20061;-80
2023/01/15 01:45:25;;;;;;;2.25;0.35;;;;;;;3.40;90.84;98721.13;10360073;28;20113;-80
2023/01/15 01:50:29;;;;;;;2.30;0.43;;;;;;;3.39;90.64;98759.25;10362842;28;20073;-80
2023/01/15 01:55:34;;;;;;;2.10;0.38;;;;;;;3.41;90.38;98754.69;10364243;28;20065;-79
2023/01/15 02:00:42;;;;;;;3.17;0.40;;;;;;;3.53;89.64;98732.50;10364876;28;20049;-79
2023/01/15 02:05:50;;;;;;;1.83;0.30;;;;;;;3.65;88.64;98731.53;10373068;28;20054;-79
2023/01/15 02:10:55;;;;;;;4.07;0.30;;;;;;;3.45;88.89;98734.91;10370976;28;20068;-80
2023/01/15 02:16:11;;;;;;;2.07;0.40;;;;;;;3.76;89.17;98735.13;10391890;28;20056;-79
2023/01/15 02:21:24;;;;;;;4.07;0.68;;;;;;;3.23;90.79;98714.47;10380930;28;20038;-79
2023/01/15 02:27:09;;;;;;;0.70;0.30;;;;;;;3.46;89.94;98704.75;10381555;28;20067;-79
2023/01/15 02:32:18;;;;;;;0.17;0.10;;;;;;;3.62;89.26;98710.56;10383624;28;20046;-80
2023/01/15 02:37:26;;;;;;;3.10;0.60;;;;;;;3.56;89.65;98707.50;10390612;28;20605;-79
2023/01/15 02:42:31;;;;;;;4.65;0.80;;;;;;;3.66;88.58;98713.81;10395429;28;20054;-79
2023/01/15 02:47:37;;;;;;;1.85;0.52;;;;;;;4.23;86.55;98709.25;10403192;28;20038;-80
2023/01/15 02:52:45;;;;;;;1.75;0.68;;;;;;;4.14;85.75;98710.81;10395040;28;20129;-79
2023/01/15 02:57:55;;;;;;;1.83;1.20;;;;;;;4.13;86.03;98715.31;10387430;28;20059;-79
2023/01/15 03:03:06;;;;;;;3.05;1.13;;;;;;;4.35;85.36;98708.25;10409654;28;20050;-80
2023/01/15 03:08:11;;;;;;;5.47;1.80;;;;;;;4.36;85.24;98704.59;10394423;28;20045;-80
2023/01/15 03:13:22;;;;;;;5.88;1.00;;;;;;;3.97;85.17;98706.88;10407546;28;20092;-79
2023/01/15 03:18:35;;;;;;;3.15;0.93;;;;;;;4.29;84.73;98712.25;10401187;28;20515;-80
2023/01/15 03:23:47;;;;;;;3.08;1.55;;;;;;;3.91;84.30;98697.59;10390779;28;20124;-79
2023/01/15 03:28:52;;;;;;;2.63;1.40;;;;;;;4.37;83.87;98696.53;10390156;28;20042;-79
2023/01/15 03:33:55;;;;;;;6.35;1.45;;;;;;;4.25;83.83;98684.25;10387261;28;20104;-80
2023/01/15 03:38:59;;;;;;;3.30;1.50;;;;;;;4.01;83.62;98692.41;10402893;28;20038;-79
2023/01/15 03:44:31;;;;;;;2.30;1.20;;;;;;;4.52;82.12;98675.78;10394672;28;20057;-79
2023/01/15 03:49:48;;;;;;;3.17;0.85;;;;;;;4.24;82.08;98671.06;10382177;28;20106;-80
2023/01/15 03:55:11;;;;;;;2.88;1.00;;;;;;;4.60;81.14;98644.06;10386316;28;20045;-80
2023/01/15 04:00:22;;;;;;;6.25;1.08;;;;;;;4.09;81.34;98650.09;10415351;28;20076;-79
2023/01/15 04:05:31;;;;;;;2.70;0.63;;;;;;;4.18;80.82;98662.63;10406655;28;20072;-79
2023/01/15 04:10:35;;;;;;;6.93;1.38;;;;;;;4.35;80.75;98653.25;10380302;28;20529;-79
2023/01/15 04:15:41;;;;;;;2.78;0.63;;;;;;;4.42;80.19;98650.97;10380604;28;20132;-79
2023/01/15 04:20:44;;;;;;;2.35;0.50;;;;;;;4.48;80.05;98644.28;10409102;28;20038;-80
2023/01/15 04:25:48;;;;;;;2.53;0.90;;;;;;;4.42;79.92;98650.97;10381132;28;20045;-79
2023/01/15 04:30:52;;;;;;;3.72;0.90;;;;;;;4.51;80.25;98652.00;10391819;28;20032;-79
2023/01/15 04:35:55;;;;;;;4.22;0.88;;;;;;;4.58;79.76;98634.53;10419211;28;20075;-80
2023/01/15 04:46:23;;;;;;;3.60;0.85;;;;;;;4.42;80.09;98640.31;10417986;28;20046;-79
2023/01/15 04:51:26;;;;;;;4.97;1.30;;;;;;;4.48;79.70;98638.97;10395453;28;20026;-79
2023/01/15 04:56:29;;;;;;;7.07;0.85;;;;;;;4.40;79.38;98644.91;10405960;28;20037;-80
2023/01/15 05:01:33;;;;;;;3.03;1.42;;;;;;;4.48;79.39;98641.63;10396907;28;20066;-80
2023/01/15 05:06:36;;;;;;;5.82;2.03;;;;;;;4.30;79.32;98642.16;10408089;28;20065;-80
2023/01/15 05:11:39;;;;;;;6.82;1.45;;;;;;;4.61;78.70;98650.25;10420853;22;20480;-76
2023/01/15 05:16:44;;;;;;;3.17;0.70;;;;;;;4.51;79.38;98649.34;10386924;28;20451;-78
2023/01/15 05:21:47;;;;;;;2.03;0.47;;;;;;;4.31;79.12;98669.59;10382254;28;20034;-76
2023/01/15 05:26:49;;;;;;;5.47;1.25;;;;;;;4.49;78.11;98660.09;10378235;28;20226;-78
2023/01/15 05:31:54;;;;;;;6.00;0.47;;;;;;;4.45;77.68;98648.03;10378393;28;20574;-77
2023/01/15 05:36:56;;;;;;;7.93;0.80;;;;;;;4.65;77.25;98650.84;10384450;28;20119;-78
2023/01/15 05:42:01;;;;;;;5.38;0.95;;;;;;;4.84;76.85;98649.16;10378017;28;20049;-78
2023/01/15 05:47:06;;;;;;;7.32;1.10;;;;;;;4.64;77.50;98665.13;10383149;28;20046;-77
2023/01/15 05:52:09;;;;;;;7.60;1.10;;;;;;;4.57;78.21;98670.94;10374169;28;20137;-77
2023/01/15 05:57:12;;;;;;;3.70;0.77;;;;;;;4.73;77.57;98661.69;10374714;28;20489;-78
2023/01/15 06:02:17;;;;;;;2.70;0.80;;;;;;;4.66;77.28;98677.28;10389273;28;20041;-78
2023/01/15 06:07:20;;;;;;;6.63;0.90;;;;;;;4.45;77.42;98689.75;10384566;28;20041;-77
2023/01/15 06:12:22;;;;;;;4.32;0.93;;;;;;;4.72;76.58;98667.97;10390238;28;20127;-77
2023/01/15 06:17:26;;;;;;;5.63;0.68;;;;;;;4.58;76.22;98672.63;10378038;28;20038;-78
2023/01/15 06:22:29;;;;;;;7.72;1.35;;;;;;;4.59;76.29;98671.66;10382266;28;20751;-77
2023/01/15 06:27:32;;;;;;;10.18;1.60;;;;;;;4.86;75.67;98670.31;10376000;28;20052;-78
2023/01/15 06:32:37;;;;;;;1.85;0.60;;;;;;;4.55;76.13;98690.66;10403553;28;20056;-78
2023/01/15 06:37:39;;;;;;;5.00;1.33;;;;;;;4.66;76.34;98673.78;10401448;28;20042;-78
2023/01/15 06:48:05;;;;;;;1.73;0.65;;;;;;;4.66;75.39;98676.47;10399111;28;20041;-78
2023/01/15 06:53:08;;;;;;;2.97;0.95;;;;;;;4.47;75.91;98687.78;10392695;28;20041;-78
2023/01/15 06:58:11;;;;;;;4.60;1.80;;;;;;;4.60;76.01;98662.69;10416771;28;20479;-78
2023/01/15 07:03:15;;;;;;;7.85;1.35;;;;;;;4.42;76.32;98684.69;10386859;28;20056;-77
2023/01/15 07:08:18;;;;;;;3.53;0.80;;;;;;;4.52;75.49;98674.94;10393826;28;20116;-77
2023/01/15 07:13:21;;;;;;;8.10;1.40;;;;;;;4.84;74.75;98682.91;10395285;28;20042;-77
2023/01/15 07:18:25;;;;;;;6.80;1.20;;;;;;;4.56;75.80;98684.38;10391274;28;20050;-77
2023/01/15 07:23:28;;;;;;;4.90;1.08;;;;;;;4.56;75.25;98687.88;10436745;28;20045;-76
2023/01/15 07:28:30;;;;;;;3.83;1.00;;;;;;;4.71;73.74;98687.56;10412878;28;20050;-77
2023/01/15 07:33:35;;;;;;;10.50;1.48;;;;;;;4.77;74.58;98687.91;10421495;28;20397;-77
2023/01/15 07:38:37;;;;;;;7.07;1.67;;;;;;;4.94;73.35;98673.19;10400950;28;20064;-77
2023/01/15 07:54:29;;;;;;;8.90;2.05;;;;;;;4.70;73.80;98691.19;10400317;28;20048;-77
2023/01/15 07:59:32;;;;;;;4.20;1.38;;;;;;;4.96;72.88;98692.50;10395660;28;20127;-77
2023/01/15 08:04:36;;;;;;;5.90;1.02;;;;;;;4.94;72.41;98667.84;10397896;28;20045;-77
2023/01/15 08:09:39;;;;;;;5.00;1.42;;;;;;;4.83;72.47;98702.50;10405556;28;20047;-77
2023/01/15 08:20:05;;;;;;;7.28;2.10;;;;;;;4.79;72.66;98720.53;10396518;28;20099;-77
2023/01/15 08:25:10;;;;;;;5.90;2.42;;;;;;;4.98;72.32;98701.19;10403554;28;20045;-77
2023/01/15 08:30:17;;;;;;;4.78;1.38;;;;;;;4.87;71.72;98692.44;10396335;28;20065;-77
2023/01/15 08:35:21;;;;;;;6.43;1.42;;;;;;;5.08;71.57;98709.28;10385121;28;20068;-77
2023/01/15 08:40:24;;;;;;;9.30;1.63;;;;;;;5.34;70.29;98711.53;10385152;28;20045;-77
2023/01/15 08:45:27;;;;;;;6.15;0.90;;;;;;;5.17;70.08;98712.97;10392774;28;20053;-77
2023/01/15 08:50:31;;;;;;;4.13;1.83;;;;;;;5.48;69.25;98704.03;10392987;28;20124;-77
2023/01/15 08:55:34;;;;;;;5.20;1.38;;;;;;;4.95;68.18;98727.22;10396426;28;20041;-75
2023/01/15 09:00:37;;;;;;;2.88;1.33;;;;;;;5.67;66.12;98703.28;10387590;28;20050;-76
2023/01/15 09:05:41;;;;;;;4.97;1.38;;;;;;;4.91;66.17;98713.34;10389790;28;20079;-75
2023/01/15 09:10:44;;;;;;;12.95;1.45;;;;;;;4.52;64.97;98714.84;10383378;28;20634;-75
2023/01/15 09:15:47;;;;;;;2.33;0.60;;;;;;;4.53;66.52;98717.38;10392330;28;20045;-75
2023/01/15 09:20:51;;;;;;;6.15;1.20;;;;;;;4.50;67.59;98720.28;10381897;28;21288;-75
2023/01/15 09:25:54;;;;;;;2.30;1.13;;;;;;;4.56;66.88;98718.94;10382622;28;20049;-76
2023/01/15 09:30:57;;;;;;;3.08;1.02;;;;;;;4.57;67.79;98733.91;10378992;28;20060;-75
2023/01/15 09:36:02;;;;;;;2.65;0.93;;;;;;;4.18;69.27;98723.75;10368497;28;20045;-75
2023/01/15 09:42:03;;;;;;;4.30;1.20;;;;;;;4.31;69.77;98720.94;10384436;28;21309;-76
2023/01/15 09:46:43;;;;;;;4.35;0.90;;;;;;;4.31;69.61;98736.06;10374679;28;20120;-75
2023/01/15 09:51:57;;;;;;;4.47;1.05;;;;;;;4.25;69.99;98734.75;10391534;28;20052;-75
2023/01/15 09:57:01;;;;;;;6.07;1.10;;;;;;;4.23;69.88;98734.03;10386066;28;20049;-75
2023/01/15 10:02:12;;;;;;;5.13;0.88;;;;;;;4.55;69.23;98733.19;10366186;28;20521;-75
2023/01/15 10:07:25;;;;;;;4.78;1.15;;;;;;;4.65;68.95;98731.47;10391268;28;20052;-76
2023/01/15 10:12:38;;;;;;;3.85;0.95;;;;;;;4.68;69.03;98723.22;10399419;28;20050;-76
2023/01/15 10:17:43;;;;;;;6.38;1.63;;;;;;;5.12;67.15;98731.16;10396326;28;20098;-75
2023/01/15 10:23:02;;;;;;;1.80;0.82;;;;;;;5.27;64.46;98712.06;10405378;28;20613;-75
2023/01/15 10:28:15;;;;;;;6.78;1.38;;;;;;;5.64;63.02;98732.00;10397094;28;20041;-75
2023/01/15 10:33:51;;;;;;;5.05;1.02;;;;;;;5.53;62.05;98698.31;10391756;28;20106;-75
2023/01/15 10:39:02;;;;;;;3.47;1.02;;;;;;;5.17;62.33;98735.13;10380264;28;20187;-75
2023/01/15 10:44:12;;;;;;;3.67;0.73;;;;;;;5.35;60.73;98715.88;10413360;28;20096;-75
2023/01/15 10:49:17;;;;;;;1.90;0.82;;;;;;;5.67;59.52;98705.09;10370012;28;20495;-75
2023/01/15 10:54:27;;;;;;;5.15;1.50;;;;;;;6.22;57.14;98740.22;10391929;28;21593;-76
2023/01/15 10:59:38;;;;;;;4.10;1.05;;;;;;;6.52;56.61;98741.13;10399710;28;20051;-76
2023/01/15 11:04:40;;;;;;;2.70;0.50;;;;;;;5.06;58.74;98720.06;10397014;28;20575;-76
2023/01/15 11:09:48;;;;;;;5.70;1.50;;;;;;;5.33;58.36;98710.69;10388987;28;20056;-75
2023/01/15 11:20:22;;;;;;;1.23;0.52;;;;;;;5.85;56.34;98641.38;10385095;28;20592;-76
2023/01/15 11:25:28;;;;;;;4.65;0.98;;;;;;;5.35;57.57;98722.06;10385448;28;20426;-75
2023/01/15 11:30:33;;;;;;;6.97;1.10;;;;;;;5.22;58.64;98700.13;10396693;28;20048;-77
2023/01/15 11:35:36;;;;;;;3.58;0.98;;;;;;;5.83;56.80;98750.75;10394473;28;20510;-75
2023/01/15 11:52:11;;;;;;;1.38;0.68;;;;;;;5.47;58.35;98714.84;10238024;29;20046;-74
2023/01/15 11:57:25;;;;;;;3.25;0.75;;;;;;;5.98;58.61;98705.94;10242647;29;20043;-76
2023/01/15 12:02:37;;;;;;;4.10;0.73;;;;;;;5.71;59.26;98709.19;10240463;29;20623;-74
2023/01/15 12:07:40;;;;;;;2.45;0.77;;;;;;;5.38;60.35;98710.31;10235479;29;20619;-76
2023/01/15 12:12:55;;;;;;;6.72;1.80;;;;;;;5.16;59.98;98698.00;10237290;29;21033;-77
2023/01/15 12:18:28;;;;;;;6.20;1.70;;;;;;;5.28;59.46;98719.06;10235138;29;20046;-76
2023/01/15 12:23:53;;;;;;;3.45;0.70;;;;;;;5.48;58.86;98701.38;10235637;28;20049;-77
2023/01/15 12:29:05;;;;;;;2.67;0.70;;;;;;;6.58;56.23;98701.41;10234111;28;20039;-76
2023/01/15 12:34:19;;;;;;;5.10;0.95;;;;;;;7.11;53.70;98720.66;10240733;29;20090;-77
2023/01/15 12:39:24;;;;;;;4.20;1.17;;;;;;;5.79;57.30;98690.72;10244798;29;20048;-76
2023/01/15 12:50:03;;;;;;;7.43;1.67;;;;;;;5.27;58.22;98706.75;10247367;28;20474;-75
2023/01/15 12:55:14;;;;;;;2.80;1.10;;;;;;;5.59;58.74;98704.94;10243748;29;20553;-75
2023/01/15 13:00:21;;;;;;;5.55;1.10;;;;;;;5.52;58.21;98698.47;10247355;28;20494;-75
2023/01/15 13:05:30;;;;;;;8.15;1.15;;;;;;;5.08;59.27;98698.66;10244681;29;20399;-76
2023/01/15 13:10:35;;;;;;;1.58;0.40;;;;;;;5.39;58.68;98707.50;10229315;29;20414;-75
2023/01/15 13:15:46;;;;;;;2.08;0.85;;;;;;;5.30;58.61;98716.28;10233076;23;20115;-76
2023/01/15 13:20:54;;;;;;;2.88;0.90;;;;;;;5.64;58.97;98692.06;10144594;29;20044;-77
2023/01/15 13:26:11;;;;;;;6.20;1.13;;;;;;;5.27;58.88;98722.72;10132314;29;20384;-77
2023/01/15 13:31:35;;;;;;;5.65;1.83;;;;;;;5.35;59.58;98698.09;10122488;29;20470;-76
2023/01/15 13:36:42;;;;;;;5.57;1.25;;;;;;;5.84;57.38;98685.84;10108340;29;20059;-76
2023/01/15 13:47:13;;;;;;;6.68;1.55;;;;;;;5.84;57.48;98708.94;10110761;29;20127;-75
2023/01/15 13:52:26;;;;;;;3.25;0.75;;;;;;;5.46;58.85;98679.38;10131999;29;21680;-75
2023/01/15 13:57:34;;;;;;;1.85;0.73;;;;;;;5.55;58.27;98728.34;10124465;29;20152;-76
2023/01/15 14:02:39;;;;;;;4.30;1.63;;;;;;;5.33;59.02;98697.38;10127551;29;20199;-75
2023/01/15 14:07:44;;;;;;;4.05;0.80;;;;;;;5.32;59.56;98698.38;10128157;29;20051;-75
2023/01/15 14:12:57;;;;;;;4.30;1.00;;;;;;;5.49;58.53;98713.72;10127494;29;20055;-75
2023/01/15 14:18:15;;;;;;;4.72;0.60;;;;;;;5.33;58.82;98696.53;10135636;29;20048;-75
2023/01/15 14:23:36;;;;;;;1.98;0.50;;;;;;;5.16;59.45;98820.44;10133970;29;20660;-75
2023/01/15 14:28:59;;;;;;;3.05;0.80;;;;;;;5.16;59.25;98730.78;10132322;29;20448;-75
2023/01/15 14:34:16;;;;;;;2.15;0.65;;;;;;;5.33;60.13;98745.31;10108198;29;20075;-75
2023/01/15 14:39:28;;;;;;;2.67;1.17;;;;;;;5.22;59.91;98756.03;10135016;29;20055;-75
2023/01/15 14:44:33;;;;;;;1.37;0.60;;;;;;;5.41;60.42;98724.19;10124098;29;20044;-76
2023/01/15 14:49:48;;;;;;;8.85;1.48;;;;;;;5.08;61.09;98730.59;10121120;29;20368;-75
2023/01/15 14:54:54;;;;;;;1.35;0.55;;;;;;;5.08;60.65;98751.03;10122727;29;20048;-76
2023/01/15 15:00:02;;;;;;;4.32;0.85;;;;;;;5.21;60.79;98754.31;10135982;29;20689;-76
2023/01/15 15:05:13;;;;;;;3.13;0.90;;;;;;;5.31;60.63;98762.38;10126927;29;20055;-76
2023/01/15 15:10:23;;;;;;;4.95;1.00;;;;;;;5.39;60.59;98752.78;10123232;29;20056;-76
2023/01/15 15:15:37;;;;;;;2.90;0.85;;;;;;;5.04;61.31;98769.91;10132701;29;20067;-76
2023/01/15 15:20:48;;;;;;;5.75;0.80;;;;;;;5.15;61.23;98771.66;10139015;29;20530;-76
2023/01/15 15:25:57;;;;;;;2.58;0.77;;;;;;;5.19;61.04;98789.06;10131666;29;20052;-76
2023/01/15 15:31:01;;;;;;;6.10;1.08;;;;;;;5.19;61.14;98796.22;10132681;29;20137;-76
2023/01/15 15:36:05;;;;;;;2.05;0.55;;;;;;;5.18;61.60;98786.53;10129584;29;20055;-77
2023/01/15 15:41:12;;;;;;;2.97;1.02;;;;;;;5.22;60.60;98796.81;10127782;29;20055;-75
2023/01/15 15:51:49;;;;;;;0.82;0.57;;;;;;;4.92;62.42;98783.38;10121033;29;20045;-76
2023/01/15 15:56:58;;;;;;;3.70;0.95;;;;;;;5.09;61.06;98798.78;10107026;29;20055;-75
2023/01/15 16:02:13;;;;;;;3.22;1.02;;;;;;;5.10;60.23;98836.91;10121937;29;20118;-76
2023/01/15 16:07:24;;;;;;;3.47;1.65;;;;;;;5.45;60.23;98786.84;10124701;29;20044;-75
2023/01/15 16:12:30;;;;;;;3.15;0.85;;;;;;;5.00;60.38;98792.44;10127517;29;20056;-75
2023/01/15 16:17:42;;;;;;;1.55;0.80;;;;;;;5.23;59.63;98801.13;10125941;29;20764;-76
2023/01/15 16:22:46;;;;;;;5.97;0.98;;;;;;;5.32;59.98;98788.03;10121186;29;20060;-76
2023/01/15 16:27:50;;;;;;;2.45;1.00;;;;;;;5.05;60.43;98824.00;10120431;29;20054;-75
2023/01/15 16:32:55;;;;;;;2.58;0.75;;;;;;;5.00;60.43;98804.91;10131738;29;20087;-75
2023/01/15 16:38:01;;;;;;;4.13;0.85;;;;;;;5.08;60.47;98790.97;10131365;29;20060;-75
2023/01/15 16:43:10;;;;;;;3.05;0.90;;;;;;;5.38;59.78;98830.13;10131723;29;20048;-75
2023/01/15 16:48:28;;;;;;;3.85;1.13;;;;;;;5.32;59.72;98812.00;10129432;29;20064;-75
2023/01/15 16:53:38;;;;;;;3.22;0.85;;;;;;;5.14;59.70;98817.06;10131098;29;20603;-75
2023/01/15 16:58:42;;;;;;;6.55;1.35;;;;;;;5.24;59.95;98794.03;10131061;29;20118;-75
2023/01/15 17:03:45;;;;;;;2.45;0.65;;;;;;;4.96;60.59;98804.25;10132486;29;20711;-75
2023/01/15 17:08:49;;;;;;;1.70;0.65;;;;;;;5.13;59.98;98833.97;10132723;29;20055;-75
2023/01/15 17:14:07;;;;;;;1.27;0.80;;;;;;;5.16;60.12;98842.56;10128735;29;20063;-75
2023/01/15 17:19:11;;;;;;;1.80;0.50;;;;;;;4.98;59.77;98804.97;10128874;29;20138;-75
2023/01/15 17:24:14;;;;;;;2.25;0.70;;;;;;;5.25;59.86;98864.91;10129945;29;20058;-75
2023/01/15 17:29:18;;;;;;;2.70;1.42;;;;;;;4.98;60.68;98860.84;10127878;29;20052;-75
2023/01/15 17:34:23;;;;;;;4.53;0.98;;;;;;;5.13;60.38;98863.25;10129138;29;20535;-75
2023/01/15 17:39:26;;;;;;;3.88;0.68;;;;;;;5.17;60.04;98848.72;10126235;29;20052;-76
2023/01/15 17:44:31;;;;;;;1.55;0.40;;;;;;;5.09;60.37;98845.88;10108013;29;20363;-75
2023/01/15 17:49:34;;;;;;;1.38;0.52;;;;;;;5.26;60.25;98848.78;10118872;29;20152;-75
2023/01/15 18:05:31;;;;;;;1.00;0.63;;;;;;;5.30;60.83;98859.22;10124391;29;20057;-75
2023/01/15 18:10:34;;;;;;;3.85;0.88;;;;;;;5.03;61.48;98885.31;10127112;29;20422;-75
2023/01/15 18:15:38;;;;;;;2.00;0.82;;;;;;;5.27;61.14;98878.94;10127130;29;20507;-75
2023/01/15 18:20:41;;;;;;;6.32;1.23;;;;;;;5.16;61.27;98884.31;10126816;29;20048;-75
2023/01/15 18:25:46;;;;;;;1.25;0.80;;;;;;;5.13;61.18;98879.22;10121995;29;20142;-75
2023/01/15 18:30:50;;;;;;;4.90;0.73;;;;;;;5.21;61.18;98877.66;10120634;29;20127;-74
2023/01/15 18:36:01;;;;;;;1.40;0.60;;;;;;;4.98;62.06;98881.31;10126520;29;20520;-74
2023/01/15 18:41:08;;;;;;;3.75;0.80;;;;;;;5.16;60.39;98943.72;10129464;29;20062;-76
2023/01/15 18:51:34;;;;;;;;;;;;;;;5.04;61.74;98884.34;10109009;29;21258;-75
2023/01/15 18:56:41;;;;;;;1.15;0.90;;;;;;;5.01;61.97;98899.72;10129516;29;20073;-76
2023/01/15 19:01:46;;;;;;;3.10;0.98;;;;;;;4.94;62.31;98903.84;10132607;29;20055;-75
2023/01/15 19:06:49;;;;;;;3.38;0.90;;;;;;;5.01;62.50;98905.88;10144900;29;20052;-76
2023/01/15 19:11:53;;;;;;;4.88;0.85;;;;;;;5.16;61.93;98902.97;10143088;29;20067;-75
2023/01/15 19:27:38;;;;;;;2.92;1.05;;;;;;;5.29;62.14;98916.91;10135898;29;20685;-75
2023/01/15 19:32:43;;;;;;;3.95;1.15;;;;;;;5.09;62.56;98910.59;10121302;29;20048;-75
2023/01/15 19:37:47;;;;;;;2.80;1.48;;;;;;;5.16;62.39;98922.44;10105082;29;20056;-75
2023/01/15 19:53:36;;;;;;;1.75;1.08;;;;;;;5.00;62.82;98893.56;10133785;29;20165;-76
2023/01/15 19:58:38;;;;;;;1.55;0.90;;;;;;;5.00;62.35;98898.03;10127742;29;20052;-76
2023/01/15 20:03:45;;;;;;;6.35;1.92;;;;;;;4.92;62.99;98903.09;10124867;29;20048;-79
2023/01/15 20:08:48;;;;;;;1.67;0.90;;;;;;;5.06;62.55;98893.03;10126801;29;20045;-74
2023/01/15 20:13:52;;;;;;;3.05;0.70;;;;;;;4.88;63.31;98897.16;10122425;29;20048;-75
2023/01/15 20:18:56;;;;;;;1.60;0.77;;;;;;;5.05;62.91;98891.38;10127034;29;20143;-76
2023/01/15 20:23:59;;;;;;;1.60;0.65;;;;;;;4.83;63.49;98896.72;10120138;29;20060;-76
2023/01/15 20:29:02;;;;;;;2.92;0.80;;;;;;;5.06;62.53;98879.72;10133006;29;20144;-76
2023/01/15 20:34:06;;;;;;;2.33;0.98;;;;;;;4.97;63.20;98877.81;10099596;29;20592;-76
2023/01/15 20:39:09;;;;;;;3.00;1.20;;;;;;;5.09;63.05;98873.31;10110479;29;20049;-76
2023/01/15 20:49:34;;;;;;;4.90;1.08;;;;;;;4.98;63.91;98874.16;10127460;29;20048;-77
2023/01/15 20:54:37;;;;;;;5.22;0.95;;;;;;;5.07;63.84;98867.25;10124644;29;20078;-75
2023/01/15 20:59:40;;;;;;;2.60;0.98;;;;;;;4.78;64.52;98878.44;10131484;29;20060;-76
2023/01/15 21:04:44;;;;;;;2.17;1.15;;;;;;;4.61;65.82;98895.78;10131589;29;20066;-76
2023/01/15 21:09:47;;;;;;;2.70;1.00;;;;;;;4.59;66.35;98865.78;10139960;29;20159;-76
2023/01/15 21:14:49;;;;;;;2.47;1.00;;;;;;;4.79;66.80;98860.66;10124228;29;20086;-75
2023/01/15 21:19:53;;;;;;;5.50;0.82;;;;;;;4.82;66.68;98855.09;10128221;29;20051;-76
2023/01/15 21:24:57;;;;;;;4.20;1.05;;;;;;;4.67;67.14;98862.50;10130175;29;20067;-75
2023/01/15 21:29:59;;;;;;;3.72;1.00;;;;;;;4.93;66.60;98863.03;10127462;29;20052;-75
2023/01/15 21:35:04;;;;;;;2.33;1.00;;;;;;;4.90;66.82;98855.31;10118631;29;20052;-76
2023/01/15 21:40:09;;;;;;;6.15;1.00;;;;;;;4.92;66.43;98844.56;10128862;29;20047;-75
2023/01/15 21:45:12;;;;;;;6.10;1.00;;;;;;;5.02;66.45;98851.69;10128916;29;20072;-75
2023/01/15 21:50:17;;;;;;;3.03;1.25;;;;;;;4.74;66.77;98846.91;10128662;29;20052;-75
2023/01/15 21:55:20;;;;;;;2.00;1.00;;;;;;;5.20;65.56;98835.16;10114486;29;20057;-76
2023/01/15 22:00:23;;;;;;;4.05;1.35;;;;;;;5.00;65.73;98829.69;10186616;23;20495;-77
2023/01/15 22:05:27;;;;;;;6.63;0.80;;;;;;;4.63;67.75;98826.47;10209777;29;20392;-78
2023/01/15 22:10:30;;;;;;;2.97;0.80;;;;;;;4.51;72.18;98825.66;10203137;29;20475;-77
2023/01/15 22:15:33;;;;;;;6.53;1.05;;;;;;;3.60;77.05;98828.47;10185382;29;20048;-77
2023/01/15 22:20:37;;;;;;;5.88;1.38;;;;;;;3.89;78.95;98826.19;10211935;29;20052;-76
2023/01/15 22:25:41;;;;;;;6.47;1.27;;;;;;;3.77;79.32;98811.22;10191844;29;20040;-77
2023/01/15 22:30:46;;;;;;;11.07;1.80;;;;;;;3.86;79.79;98808.66;10195323;29;20086;-78
2023/01/15 22:35:57;;;;;;;5.93;1.42;;;;;;;3.72;79.33;98801.78;10217130;29;20040;-78
2023/01/15 22:41:00;;;;;;;4.65;1.50;;;;;;;3.86;78.63;98794.56;10201072;29;20414;-77
2023/01/15 22:46:10;;;;;;;5.97;1.35;;;;;;;3.83;77.67;98798.28;10199240;29;20052;-78
2023/01/15 22:51:14;;;;;;;3.88;1.52;;;;;;;3.93;76.60;98778.00;10197347;29;20236;-77
2023/01/15 22:56:17;;;;;;;1.75;0.50;;;;;;;3.73;74.43;98779.59;10196641;29;20470;-76
2023/01/15 23:01:20;;;;;;;4.57;0.82;;;;;;;3.99;73.75;98765.22;10206385;29;20051;-77
2023/01/15 23:06:27;;;;;;;3.50;1.42;;;;;;;3.92;72.85;98773.69;10197180;29;20044;-76
2023/01/15 23:11:30;;;;;;;4.00;1.52;;;;;;;3.91;72.69;98752.53;10206708;29;20491;-77
2023/01/15 23:16:33;;;;;;;4.45;0.88;;;;;;;4.16;71.57;98746.94;10199170;29;20503;-77
2023/01/15 23:21:39;;;;;;;5.47;1.10;;;;;;;4.18;71.29;98744.16;10195200;29;20051;-77
2023/01/15 23:26:42;;;;;;;3.72;1.15;;;;;;;4.36;70.33;98737.38;10204533;29;20039;-78
2023/01/15 23:31:44;;;;;;;4.13;0.93;;;;;;;4.35;69.61;98735.66;10197915;29;20066;-77
2023/01/15 23:36:49;;;;;;;6.70;1.17;;;;;;;4.15;69.07;98739.94;10193796;29;20152;-77
2023/01/15 23:47:12;;;;;;;9.82;1.02;;;;;;;4.47;68.11;98723.22;10200253;29;20122;-79
2023/01/15 23:52:17;;;;;;;7.57;1.20;;;;;;;4.40;69.33;98722.00;10208450;29;20060;-77
2023/01/15 23:57:20;;;;;;;3.90;0.98;;;;;;;4.13;71.11;98719.78;10213332;29;20051;-78
